createdAt,value
2022-07-28T00:00:05.869Z,14.20
2022-07-28T00:02:35.304Z,14.10
2022-07-28T00:05:02.656Z,14.07
2022-07-28T00:07:29.482Z,14.08
2022-07-28T00:10:00.341Z,14.17
2022-07-28T00:12:28.049Z,14.04
2022-07-28T00:14:54.990Z,14.04
2022-07-28T00:17:21.905Z,13.86
2022-07-28T00:19:48.702Z,13.74
2022-07-28T00:22:15.611Z,13.78
2022-07-28T00:24:42.483Z,13.81
2022-07-28T00:27:09.319Z,13.80
2022-07-28T00:29:49.288Z,13.87
2022-07-28T00:32:18.477Z,13.79
2022-07-28T00:34:45.356Z,13.76
2022-07-28T00:37:14.422Z,13.72
2022-07-28T00:39:42.841Z,13.76
2022-07-28T00:42:10.521Z,13.76
2022-07-28T00:44:41.652Z,13.76
2022-07-28T00:47:08.611Z,13.81
2022-07-28T00:49:35.494Z,13.69
2022-07-28T00:52:02.762Z,13.78
2022-07-28T00:54:29.674Z,13.79
2022-07-28T00:56:56.524Z,13.73
2022-07-28T00:59:23.428Z,13.72
2022-07-28T01:01:50.789Z,13.75
2022-07-28T01:04:21.310Z,13.81
2022-07-28T01:06:51.123Z,13.84
2022-07-28T01:09:30.829Z,13.66
2022-07-28T01:12:19.633Z,13.72
2022-07-28T01:15:15.430Z,13.70
2022-07-28T01:17:52.035Z,13.66
2022-07-28T01:20:34.680Z,13.59
2022-07-28T01:23:29.401Z,13.64
2022-07-28T01:26:30.301Z,13.70
2022-07-28T01:28:59.946Z,13.67
2022-07-28T01:31:31.095Z,13.63
2022-07-28T01:34:05.712Z,13.59
2022-07-28T01:36:38.290Z,13.64
2022-07-28T01:39:05.525Z,13.73
2022-07-28T01:41:34.691Z,13.82
2022-07-28T01:44:06.586Z,13.94
2022-07-28T01:46:35.698Z,13.86
2022-07-28T01:49:03.504Z,14.01
2022-07-28T01:51:33.476Z,13.89
2022-07-28T01:54:02.532Z,13.95
2022-07-28T01:56:33.209Z,13.93
2022-07-28T01:59:06.328Z,13.83
2022-07-28T02:01:38.794Z,14.02
2022-07-28T02:04:08.262Z,14.09
2022-07-28T02:06:37.256Z,14.07
2022-07-28T02:09:06.085Z,14.15
2022-07-28T02:11:41.407Z,14.08
2022-07-28T02:14:11.877Z,14.20
2022-07-28T02:16:46.808Z,14.03
2022-07-28T02:19:15.036Z,14.39
2022-07-28T02:21:42.990Z,14.41
2022-07-28T02:24:13.001Z,14.32
2022-07-28T02:26:47.023Z,14.30
2022-07-28T02:29:33.405Z,14.19
2022-07-28T02:32:28.181Z,14.19
2022-07-28T02:35:09.524Z,13.95
2022-07-28T02:37:40.071Z,13.76
2022-07-28T02:40:13.683Z,13.80
2022-07-28T02:42:41.895Z,14.01
2022-07-28T02:45:11.744Z,14.16
2022-07-28T02:47:46.533Z,14.22
2022-07-28T02:50:15.452Z,14.41
2022-07-28T02:52:43.950Z,14.52
2022-07-28T02:55:15.142Z,14.71
2022-07-28T02:57:44.611Z,14.63
2022-07-28T03:00:12.438Z,14.78
2022-07-28T03:02:41.314Z,14.71
2022-07-28T03:05:11.149Z,14.75
2022-07-28T03:07:41.238Z,14.83
2022-07-28T03:10:33.414Z,14.83
2022-07-28T03:13:02.162Z,14.39
2022-07-28T03:15:29.351Z,14.21
2022-07-28T03:17:56.137Z,13.97
2022-07-28T03:20:23.282Z,13.63
2022-07-28T03:22:50.114Z,13.81
2022-07-28T03:25:35.764Z,14.06
2022-07-28T03:28:08.133Z,14.24
2022-07-28T03:30:40.737Z,14.29
2022-07-28T03:33:08.061Z,14.35
2022-07-28T03:35:38.965Z,14.45
2022-07-28T03:38:13.547Z,14.57
2022-07-28T03:40:43.627Z,14.48
2022-07-28T03:43:14.576Z,14.49
2022-07-28T03:45:41.800Z,14.40
2022-07-28T03:48:15.045Z,14.48
2022-07-28T03:50:42.839Z,14.63
2022-07-28T03:53:19.082Z,14.69
2022-07-28T03:55:50.639Z,14.68
2022-07-28T03:58:26.083Z,14.69
2022-07-28T04:00:55.900Z,14.74
2022-07-28T04:03:42.395Z,14.84
2022-07-28T04:06:09.940Z,14.77
2022-07-28T04:08:36.808Z,14.94
2022-07-28T04:11:03.682Z,14.97
2022-07-28T04:13:32.238Z,15.15
2022-07-28T04:16:00.170Z,15.26
2022-07-28T04:18:27.132Z,15.23
2022-07-28T04:20:55.811Z,15.31
2022-07-28T04:23:24.048Z,15.46
2022-07-28T04:25:50.987Z,15.51
2022-07-28T04:28:17.902Z,15.57
2022-07-28T04:30:44.863Z,15.43
2022-07-28T04:33:12.961Z,15.50
2022-07-28T04:35:39.814Z,15.57
2022-07-28T04:38:07.752Z,15.56
2022-07-28T04:40:34.917Z,15.74
2022-07-28T04:43:03.684Z,15.72
2022-07-28T04:45:30.932Z,15.70
2022-07-28T04:47:57.855Z,15.69
2022-07-28T04:50:24.884Z,15.81
2022-07-28T04:52:58.892Z,15.88
2022-07-28T04:55:25.941Z,15.93
2022-07-28T04:57:52.740Z,15.95
2022-07-28T05:00:20.071Z,15.94
2022-07-28T05:02:50.203Z,15.99
2022-07-28T05:05:17.697Z,15.81
2022-07-28T05:07:44.637Z,15.75
2022-07-28T05:10:12.730Z,15.96
2022-07-28T05:12:39.942Z,15.97
2022-07-28T05:15:08.461Z,16.02
2022-07-28T05:17:37.000Z,16.12
2022-07-28T05:20:05.228Z,16.09
2022-07-28T05:22:42.517Z,16.07
2022-07-28T05:25:17.887Z,16.22
2022-07-28T05:27:45.865Z,16.24
2022-07-28T05:30:13.759Z,16.28
2022-07-28T05:32:40.752Z,16.22
2022-07-28T05:35:08.481Z,16.20
2022-07-28T05:37:36.831Z,16.25
2022-07-28T05:40:08.314Z,16.41
2022-07-28T05:42:38.257Z,16.58
2022-07-28T05:45:14.976Z,16.68
2022-07-28T05:47:45.696Z,16.43
2022-07-28T05:50:14.341Z,16.60
2022-07-28T05:52:41.406Z,16.67
2022-07-28T05:55:09.165Z,16.86
2022-07-28T05:57:37.381Z,16.87
2022-07-28T06:00:07.943Z,16.82
2022-07-28T06:02:39.493Z,16.61
2022-07-28T06:05:06.764Z,16.69
2022-07-28T06:07:43.490Z,15.80
2022-07-28T06:10:16.498Z,16.14
2022-07-28T06:12:49.374Z,15.93
2022-07-28T06:15:24.345Z,16.01
2022-07-28T06:17:53.218Z,15.37
2022-07-28T06:20:24.454Z,15.94
2022-07-28T06:22:55.288Z,16.13
2022-07-28T06:25:25.670Z,16.44
2022-07-28T06:27:55.018Z,16.62
2022-07-28T06:30:22.764Z,16.68
2022-07-28T06:32:50.124Z,16.66
2022-07-28T06:35:17.741Z,16.77
2022-07-28T06:37:48.290Z,16.73
2022-07-28T06:40:16.250Z,16.89
2022-07-28T06:42:44.454Z,16.94
2022-07-28T06:45:19.663Z,16.94
2022-07-28T06:47:48.452Z,17.13
2022-07-28T06:50:24.683Z,17.23
2022-07-28T06:52:59.033Z,17.25
2022-07-28T06:55:34.438Z,16.92
2022-07-28T06:58:05.655Z,17.03
2022-07-28T07:00:33.115Z,17.18
2022-07-28T07:03:00.834Z,17.10
2022-07-28T07:05:32.035Z,17.27
2022-07-28T07:07:59.485Z,17.43
2022-07-28T07:10:27.474Z,17.43
2022-07-28T07:12:54.440Z,17.65
2022-07-28T07:15:21.323Z,17.71
2022-07-28T07:17:48.149Z,17.67
2022-07-28T07:20:17.178Z,17.95
2022-07-28T07:22:46.245Z,17.84
2022-07-28T07:25:18.295Z,17.94
2022-07-28T07:27:46.324Z,18.17
2022-07-28T07:30:15.207Z,18.11
2022-07-28T07:32:42.476Z,18.08
2022-07-28T07:35:09.918Z,18.58
2022-07-28T07:37:38.086Z,18.58
2022-07-28T07:40:06.195Z,18.61
2022-07-28T07:42:33.718Z,18.64
2022-07-28T07:45:00.675Z,19.00
2022-07-28T07:47:27.737Z,19.00
2022-07-28T07:49:54.676Z,18.98
2022-07-28T07:52:21.659Z,19.19
2022-07-28T07:54:48.656Z,19.41
2022-07-28T07:57:15.656Z,19.28
2022-07-28T07:59:42.510Z,19.67
2022-07-28T08:02:09.657Z,19.84
2022-07-28T08:04:37.485Z,19.85
2022-07-28T08:07:05.872Z,19.75
2022-07-28T08:09:33.728Z,19.70
2022-07-28T08:12:00.646Z,19.72
2022-07-28T08:14:27.727Z,19.64
2022-07-28T08:16:56.587Z,19.89
2022-07-28T08:19:24.263Z,20.11
2022-07-28T08:21:51.427Z,20.28
2022-07-28T08:24:29.040Z,20.52
2022-07-28T08:27:02.472Z,20.50
2022-07-28T08:29:29.566Z,20.68
2022-07-28T08:31:56.928Z,20.71
2022-07-28T08:34:26.260Z,20.83
2022-07-28T08:36:58.832Z,20.99
2022-07-28T08:39:26.085Z,20.99
2022-07-28T08:42:05.354Z,20.26
2022-07-28T08:44:46.949Z,19.76
2022-07-28T08:47:15.830Z,20.15
2022-07-28T08:49:43.784Z,20.19
2022-07-28T08:52:12.814Z,20.00
2022-07-28T08:54:47.597Z,19.99
2022-07-28T08:57:21.903Z,19.64
2022-07-28T08:59:49.995Z,19.99
2022-07-28T09:02:17.416Z,19.87
2022-07-28T09:04:46.427Z,19.82
2022-07-28T09:07:16.081Z,19.96
2022-07-28T09:09:43.734Z,20.22
2022-07-28T09:12:11.103Z,20.20
2022-07-28T09:14:38.140Z,20.03
2022-07-28T09:17:05.575Z,20.00
2022-07-28T09:19:34.349Z,20.13
2022-07-28T09:22:03.519Z,20.31
2022-07-28T09:24:41.950Z,20.58
2022-07-28T09:27:11.946Z,20.24
2022-07-28T09:29:40.929Z,19.81
2022-07-28T09:32:08.722Z,20.26
2022-07-28T09:34:47.800Z,20.33
2022-07-28T09:37:27.762Z,20.12
2022-07-28T09:40:00.254Z,20.14
2022-07-28T09:42:46.146Z,20.00
2022-07-28T09:45:22.866Z,20.18
2022-07-28T09:48:09.814Z,20.61
2022-07-28T09:50:38.217Z,20.46
2022-07-28T09:53:28.518Z,20.41
2022-07-28T09:56:00.680Z,20.60
2022-07-28T09:58:30.465Z,20.54
2022-07-28T10:01:13.075Z,20.35
2022-07-28T10:03:42.827Z,20.25
2022-07-28T10:06:26.906Z,20.61
2022-07-28T10:08:56.000Z,20.40
2022-07-28T10:11:26.787Z,21.27
2022-07-28T10:14:00.679Z,21.22
2022-07-28T10:16:36.065Z,21.46
2022-07-28T10:19:05.545Z,21.45
2022-07-28T10:21:36.176Z,21.08
2022-07-28T10:24:06.354Z,20.84
2022-07-28T10:26:39.355Z,21.14
2022-07-28T10:29:09.512Z,21.14
2022-07-28T10:31:54.199Z,21.52
2022-07-28T10:34:31.523Z,21.21
2022-07-28T10:37:02.093Z,21.61
2022-07-28T10:39:33.044Z,21.92
2022-07-28T10:42:00.833Z,21.37
2022-07-28T10:44:28.303Z,21.49
2022-07-28T10:46:57.002Z,21.26
2022-07-28T10:49:27.606Z,21.34
2022-07-28T10:52:04.981Z,21.23
2022-07-28T10:55:01.501Z,21.39
2022-07-28T10:57:31.498Z,21.75
2022-07-28T11:00:13.113Z,22.10
2022-07-28T11:02:57.751Z,21.37
2022-07-28T11:05:39.269Z,21.39
2022-07-28T11:08:27.852Z,21.88
2022-07-28T11:11:09.263Z,21.90
2022-07-28T11:13:41.278Z,21.89
2022-07-28T11:16:14.626Z,22.06
2022-07-28T11:19:08.082Z,21.30
2022-07-28T11:22:16.073Z,21.90
2022-07-28T11:24:58.025Z,22.09
2022-07-28T11:27:40.311Z,21.84
2022-07-28T11:30:11.730Z,22.40
2022-07-28T11:32:50.675Z,22.44
2022-07-28T11:35:19.664Z,22.05
2022-07-28T11:38:01.861Z,21.08
2022-07-28T11:40:35.434Z,21.69
2022-07-28T11:43:22.089Z,21.43
2022-07-28T11:46:14.753Z,21.89
2022-07-28T11:48:47.432Z,21.57
2022-07-28T11:51:15.901Z,22.03
2022-07-28T11:53:44.125Z,22.23
2022-07-28T11:56:23.064Z,22.05
2022-07-28T11:59:00.656Z,22.74
2022-07-28T12:01:27.580Z,22.31
2022-07-28T12:04:00.198Z,22.02
2022-07-28T12:06:40.297Z,21.58
2022-07-28T12:09:09.239Z,21.68
2022-07-28T12:11:41.592Z,21.90
2022-07-28T12:14:10.735Z,21.70
2022-07-28T12:16:39.947Z,22.31
2022-07-28T12:19:08.869Z,22.21
2022-07-28T12:21:51.005Z,22.34
2022-07-28T12:24:28.279Z,22.46
2022-07-28T12:27:00.562Z,23.21
2022-07-28T12:29:35.963Z,22.63
2022-07-28T12:32:05.576Z,22.60
2022-07-28T12:34:39.803Z,22.04
2022-07-28T12:37:12.263Z,22.04
2022-07-28T12:39:42.311Z,22.06
2022-07-28T12:42:11.491Z,22.39
2022-07-28T12:44:40.907Z,22.23
2022-07-28T12:47:11.839Z,22.62
2022-07-28T12:49:40.839Z,22.61
2022-07-28T12:52:22.640Z,21.67
2022-07-28T12:54:55.395Z,21.97
2022-07-28T12:57:48.761Z,22.04
2022-07-28T13:00:19.661Z,21.88
2022-07-28T13:02:48.176Z,22.28
2022-07-28T13:05:53.768Z,22.07
2022-07-28T13:08:21.640Z,21.60
2022-07-28T13:10:55.596Z,22.18
2022-07-28T13:13:25.773Z,22.13
2022-07-28T13:16:13.060Z,21.32
2022-07-28T13:18:44.748Z,20.78
2022-07-28T13:21:12.213Z,21.28
2022-07-28T13:23:39.619Z,21.88
2022-07-28T13:26:07.717Z,22.61
2022-07-28T13:28:34.990Z,22.03
2022-07-28T13:31:02.157Z,22.83
2022-07-28T13:33:29.409Z,22.94
2022-07-28T13:35:57.094Z,22.48
2022-07-28T13:38:27.241Z,22.42
2022-07-28T13:40:56.677Z,22.57
2022-07-28T13:43:36.170Z,22.31
2022-07-28T13:46:03.986Z,22.23
2022-07-28T13:48:32.939Z,21.66
2022-07-28T13:51:00.539Z,22.59
2022-07-28T13:53:27.372Z,21.87
2022-07-28T13:55:57.285Z,22.78
2022-07-28T13:58:24.264Z,22.99
2022-07-28T14:00:51.372Z,21.79
2022-07-28T14:03:18.291Z,22.65
2022-07-28T14:05:45.215Z,22.52
2022-07-28T14:08:18.689Z,22.56
2022-07-28T14:10:48.296Z,23.03
2022-07-28T14:13:15.528Z,23.37
2022-07-28T14:15:42.399Z,23.31
2022-07-28T14:18:09.370Z,24.24
2022-07-28T14:20:36.304Z,24.31
2022-07-28T14:23:03.350Z,23.59
2022-07-28T14:25:47.972Z,23.28
2022-07-28T14:28:15.975Z,23.06
2022-07-28T14:30:43.283Z,23.20
2022-07-28T14:33:10.086Z,23.66
2022-07-28T14:35:36.942Z,23.58
2022-07-28T14:38:42.476Z,22.81
2022-07-28T14:40:52.469Z,23.20
2022-07-28T14:43:20.105Z,22.89
2022-07-28T14:45:51.973Z,23.66
2022-07-28T14:48:34.769Z,23.07
2022-07-28T14:51:01.756Z,22.73
2022-07-28T14:53:28.580Z,23.63
2022-07-28T14:55:55.461Z,22.60
2022-07-28T14:58:22.431Z,23.17
2022-07-28T15:00:49.268Z,23.94
2022-07-28T15:03:17.023Z,23.80
2022-07-28T15:05:43.976Z,23.60
2022-07-28T15:08:10.795Z,22.99
2022-07-28T15:10:37.746Z,22.68
2022-07-28T15:13:04.574Z,22.69
2022-07-28T15:15:31.503Z,22.09
2022-07-28T15:17:58.541Z,22.05
2022-07-28T15:20:25.415Z,21.84
2022-07-28T15:22:52.334Z,21.74
2022-07-28T15:25:21.952Z,22.92
2022-07-28T15:27:48.772Z,22.73
2022-07-28T15:30:15.658Z,22.13
2022-07-28T15:32:56.071Z,22.51
2022-07-28T15:35:25.062Z,22.66
2022-07-28T15:37:51.962Z,23.32
2022-07-28T15:40:18.926Z,22.98
2022-07-28T15:42:45.793Z,23.35
2022-07-28T15:45:12.725Z,23.87
2022-07-28T15:47:40.025Z,23.24
2022-07-28T15:50:07.010Z,23.48
2022-07-28T15:52:33.844Z,24.00
2022-07-28T15:55:00.629Z,23.30
2022-07-28T15:57:27.501Z,23.80
2022-07-28T16:00:06.083Z,22.66
2022-07-28T16:02:33.014Z,23.29
2022-07-28T16:05:01.129Z,22.97
2022-07-28T16:07:29.477Z,22.88
2022-07-28T16:09:56.964Z,22.70
2022-07-28T16:12:27.590Z,23.30
2022-07-28T16:14:54.486Z,22.74
2022-07-28T16:17:22.560Z,22.92
2022-07-28T16:19:51.239Z,22.62
2022-07-28T16:22:19.559Z,22.62
2022-07-28T16:24:47.368Z,23.32
2022-07-28T16:27:14.845Z,22.87
2022-07-28T16:29:42.302Z,23.00
2022-07-28T16:32:10.032Z,22.59
2022-07-28T16:34:37.166Z,22.89
2022-07-28T16:37:05.608Z,23.06
2022-07-28T16:39:34.367Z,22.62
2022-07-28T16:42:02.686Z,22.00
2022-07-28T16:44:29.755Z,22.44
2022-07-28T16:46:56.897Z,22.38
2022-07-28T16:49:24.558Z,22.00
2022-07-28T16:51:51.554Z,22.41
2022-07-28T16:54:18.868Z,22.02
2022-07-28T16:56:46.075Z,22.49
2022-07-28T16:59:12.923Z,21.86
2022-07-28T17:01:45.146Z,21.56
2022-07-28T17:04:16.568Z,22.02
2022-07-28T17:06:43.954Z,21.14
2022-07-28T17:09:11.430Z,22.18
2022-07-28T17:11:38.607Z,21.68
2022-07-28T17:14:05.624Z,21.76
2022-07-28T17:16:32.516Z,21.72
2022-07-28T17:18:59.749Z,21.87
2022-07-28T17:21:27.113Z,21.08
2022-07-28T17:23:54.107Z,21.62
2022-07-28T17:29:08.904Z,21.82
2022-07-28T17:31:36.491Z,21.41
2022-07-28T17:34:03.478Z,21.55
2022-07-28T17:36:34.051Z,21.10
2022-07-28T17:39:01.441Z,20.96
2022-07-28T17:41:28.304Z,21.29
2022-07-28T17:43:55.280Z,21.40
2022-07-28T17:46:22.220Z,21.22
2022-07-28T17:48:53.759Z,21.33
2022-07-28T17:51:20.752Z,21.72
2022-07-28T17:53:48.765Z,21.58
2022-07-28T17:56:17.190Z,20.69
2022-07-28T17:58:45.359Z,20.51
2022-07-28T18:01:15.213Z,20.89
2022-07-28T18:03:57.907Z,20.62
2022-07-28T18:06:33.457Z,20.46
2022-07-28T18:09:09.869Z,20.22
2022-07-28T18:11:56.546Z,19.82
2022-07-28T18:14:27.202Z,19.70
2022-07-28T18:16:57.781Z,19.54
2022-07-28T18:19:25.461Z,19.78
2022-07-28T18:21:52.366Z,19.52
2022-07-28T18:24:21.923Z,19.08
2022-07-28T18:26:53.679Z,19.32
2022-07-28T18:29:21.672Z,18.79
2022-07-28T18:31:52.787Z,18.69
2022-07-28T18:34:25.040Z,18.45
2022-07-28T18:36:55.871Z,18.37
2022-07-28T18:39:22.799Z,18.33
2022-07-28T18:41:49.677Z,18.24
2022-07-28T18:44:17.894Z,18.20
2022-07-28T18:46:45.321Z,18.28
2022-07-28T18:49:12.381Z,18.11
2022-07-28T18:51:39.281Z,17.97
2022-07-28T18:54:11.024Z,17.85
2022-07-28T18:56:37.860Z,17.90
2022-07-28T18:59:04.717Z,17.70
2022-07-28T19:01:31.620Z,17.53
2022-07-28T19:03:58.486Z,17.73
2022-07-28T19:06:25.291Z,17.74
2022-07-28T19:08:52.339Z,17.28
2022-07-28T19:11:20.164Z,17.28
2022-07-28T19:13:48.362Z,17.30
2022-07-28T19:16:15.332Z,17.34
2022-07-28T19:18:42.272Z,17.15
2022-07-28T19:21:09.173Z,17.46
2022-07-28T19:23:36.000Z,17.27
2022-07-28T19:26:03.821Z,17.03
2022-07-28T19:28:30.693Z,17.30
2022-07-28T19:30:58.671Z,17.19
2022-07-28T19:33:26.154Z,17.05
2022-07-28T19:35:53.000Z,16.91
2022-07-28T19:38:20.248Z,16.94
2022-07-28T19:40:47.323Z,16.99
2022-07-28T19:43:14.178Z,16.72
2022-07-28T19:45:41.194Z,16.60
2022-07-28T19:48:08.471Z,16.65
2022-07-28T19:50:36.329Z,16.79
2022-07-28T19:53:03.503Z,16.80
2022-07-28T19:55:35.028Z,16.80
2022-07-28T19:58:03.531Z,16.50
2022-07-28T20:00:30.415Z,16.65
2022-07-28T20:02:57.445Z,16.42
2022-07-28T20:05:24.421Z,16.60
2022-07-28T20:07:51.235Z,16.64
2022-07-28T20:10:18.235Z,16.60
2022-07-28T20:12:45.722Z,16.50
2022-07-28T20:15:12.995Z,16.44
2022-07-28T20:17:40.438Z,16.48
2022-07-28T20:20:09.766Z,16.45
2022-07-28T20:22:39.142Z,16.15
2022-07-28T20:25:09.720Z,16.48
2022-07-28T20:27:40.198Z,16.45
2022-07-28T20:30:12.281Z,16.44
2022-07-28T20:32:40.547Z,16.44
2022-07-28T20:35:08.672Z,16.46
2022-07-28T20:37:37.451Z,16.28
2022-07-28T20:40:09.611Z,16.44
2022-07-28T20:42:36.930Z,16.32
2022-07-28T20:45:04.776Z,16.29
2022-07-28T20:47:33.082Z,16.24
2022-07-28T20:50:00.861Z,16.31
2022-07-28T20:52:28.202Z,16.35
2022-07-28T20:54:55.426Z,16.41
2022-07-28T20:57:23.144Z,16.39
2022-07-28T20:59:52.072Z,16.36
2022-07-28T21:02:22.936Z,16.34
2022-07-28T21:04:50.876Z,16.39
2022-07-28T21:08:04.449Z,16.38
2022-07-28T21:10:07.194Z,16.38
2022-07-28T21:12:34.537Z,16.23
2022-07-28T21:15:02.130Z,16.22
2022-07-28T21:17:29.061Z,16.13
2022-07-28T21:19:55.885Z,16.39
2022-07-28T21:22:23.255Z,16.27
2022-07-28T21:24:55.445Z,16.44
2022-07-28T21:27:23.190Z,16.33
2022-07-28T21:32:17.841Z,16.30
2022-07-28T21:34:44.714Z,16.31
2022-07-28T21:37:12.853Z,16.11
2022-07-28T21:39:40.393Z,16.16
2022-07-28T21:42:08.844Z,16.29
2022-07-28T21:44:39.317Z,16.45
2022-07-28T21:47:06.281Z,16.49
2022-07-28T21:49:33.301Z,16.40
2022-07-28T21:52:00.223Z,16.60
2022-07-28T21:54:27.336Z,16.45
2022-07-28T21:56:54.323Z,16.41
2022-07-28T21:59:21.174Z,16.51
2022-07-28T22:01:48.162Z,16.75
2022-07-28T22:04:15.530Z,16.57
2022-07-28T22:06:45.951Z,16.61
2022-07-28T22:09:14.433Z,16.53
2022-07-28T22:11:41.410Z,16.65
2022-07-28T22:14:08.538Z,16.44
2022-07-28T22:16:35.501Z,16.46
2022-07-28T22:19:02.829Z,16.39
2022-07-28T22:21:29.853Z,16.38
2022-07-28T22:23:56.758Z,16.52
2022-07-28T22:26:23.618Z,16.59
2022-07-28T22:28:50.422Z,16.58
2022-07-28T22:31:17.293Z,16.62
2022-07-28T22:33:44.187Z,16.42
2022-07-28T22:36:11.103Z,16.58
2022-07-28T22:38:37.947Z,16.50
2022-07-28T22:41:04.920Z,16.43
2022-07-28T22:43:33.525Z,16.39
2022-07-28T22:46:00.946Z,16.51
2022-07-28T22:48:27.965Z,16.44
2022-07-28T22:50:55.241Z,16.34
2022-07-28T22:53:22.121Z,16.25
2022-07-28T22:58:33.149Z,16.49
2022-07-28T23:01:00.073Z,16.42
2022-07-28T23:03:29.584Z,16.35
2022-07-28T23:06:01.973Z,16.19
2022-07-28T23:08:29.206Z,16.25
2022-07-28T23:10:56.078Z,16.16
2022-07-28T23:13:22.958Z,16.36
2022-07-28T23:15:50.518Z,16.34
2022-07-28T23:18:17.561Z,16.16
2022-07-28T23:20:45.097Z,16.25
2022-07-28T23:23:12.451Z,16.10
2022-07-28T23:25:42.743Z,15.99
2022-07-28T23:28:10.509Z,16.01
2022-07-28T23:30:37.691Z,15.83
2022-07-28T23:33:05.540Z,15.82
2022-07-28T23:35:32.592Z,15.67
2022-07-28T23:37:59.562Z,15.99
2022-07-28T23:40:26.592Z,15.95
2022-07-28T23:42:53.484Z,16.01
2022-07-28T23:45:20.346Z,16.48
2022-07-28T23:47:47.212Z,16.87
2022-07-28T23:50:14.115Z,16.94
2022-07-28T23:52:40.949Z,16.86
2022-07-28T23:55:08.563Z,16.59
2022-07-28T23:57:35.489Z,16.11
